Time;durP1;ratioP1;P1;durP2;ratioP2;P2;SDS_P1;SDS_P2;PMS_P1;PMS_P2;Temp;Humidity;BMP_temperature;BMP_pressure;BME280_temperature;BME280_humidity;BME280_pressure;Samples;Min_cycle;Max_cycle;Signal;HPM_P1;HPM_P2
2022/07/26 00:01:23;;;;;;;25.38;6.32;;;18.00;99.90;;;;;;5062868;28;20399;-67
2022/07/26 00:03:50;;;;;;;33.13;6.15;;;18.00;99.90;;;;;;5081536;28;20419;-67
2022/07/26 00:06:16;;;;;;;29.20;6.60;;;18.00;99.90;;;;;;5070600;28;20135;-67
2022/07/26 00:08:41;;;;;;;38.67;7.00;;;18.10;99.90;;;;;;5070094;28;20043;-66
2022/07/26 00:11:07;;;;;;;29.48;6.50;;;18.10;99.90;;;;;;5067114;28;20392;-67
2022/07/26 00:13:34;;;;;;;27.58;7.25;;;18.10;99.90;;;;;;5063598;28;20040;-68
2022/07/26 00:16:00;;;;;;;31.52;6.43;;;18.00;99.90;;;;;;5062349;28;20037;-66
2022/07/26 00:18:26;;;;;;;31.52;6.78;;;17.90;99.90;;;;;;5069006;28;20395;-67
2022/07/26 00:20:51;;;;;;;31.55;6.40;;;17.90;99.90;;;;;;5063585;28;20510;-67
2022/07/26 00:23:18;;;;;;;30.17;6.78;;;17.80;99.90;;;;;;5065017;28;20057;-67
2022/07/26 00:25:45;;;;;;;31.08;6.78;;;17.70;99.90;;;;;;5067971;28;20036;-68
2022/07/26 00:28:10;;;;;;;31.92;7.00;;;17.60;99.90;;;;;;5062153;28;20032;-66
2022/07/26 00:30:37;;;;;;;39.00;7.47;;;17.50;99.90;;;;;;5074479;28;20049;-68
2022/07/26 00:33:03;;;;;;;37.97;7.70;;;17.60;99.90;;;;;;5064256;28;20490;-69
2022/07/26 00:35:29;;;;;;;37.83;8.00;;;17.50;99.90;;;;;;5071669;28;20037;-68
2022/07/26 00:37:54;;;;;;;47.85;8.43;;;17.50;99.90;;;;;;5064505;28;20040;-67
2022/07/26 00:40:20;;;;;;;31.95;7.35;;;17.30;99.90;;;;;;5061853;28;20441;-66
2022/07/26 00:42:45;;;;;;;39.67;8.05;;;17.20;99.90;;;;;;5048472;28;20052;-68
2022/07/26 00:45:12;;;;;;;37.25;7.88;;;17.20;99.90;;;;;;5065258;28;20037;-67
2022/07/26 00:47:38;;;;;;;33.83;8.48;;;17.30;99.90;;;;;;5062676;28;20037;-67
2022/07/26 00:50:07;;;;;;;36.72;7.93;;;17.20;99.90;;;;;;5059113;28;20025;-67
2022/07/26 00:52:32;;;;;;;33.58;7.70;;;17.20;99.90;;;;;;5076907;28;20042;-67
2022/07/26 00:54:58;;;;;;;31.67;8.00;;;17.10;99.90;;;;;;5066137;28;20112;-67
2022/07/26 00:57:26;;;;;;;37.30;9.52;;;17.10;99.90;;;;;;5062871;28;20479;-68
2022/07/26 00:59:51;;;;;;;42.60;9.80;;;17.10;99.90;;;;;;5057400;28;20060;-69
2022/07/26 01:02:17;;;;;;;43.67;10.80;;;17.10;99.90;;;;;;5061894;28;20418;-67
2022/07/26 01:04:43;;;;;;;56.53;11.40;;;17.20;99.90;;;;;;5064104;28;20546;-68
2022/07/26 01:07:10;;;;;;;36.70;12.02;;;17.10;99.90;;;;;;5041269;28;20136;-67
2022/07/26 01:09:37;;;;;;;38.20;11.95;;;17.00;99.90;;;;;;5062554;28;20075;-68
2022/07/26 01:12:03;;;;;;;40.97;10.95;;;17.20;99.90;;;;;;5060631;28;20029;-67
2022/07/26 01:14:29;;;;;;;41.05;11.60;;;17.00;99.90;;;;;;5064794;28;20028;-69
2022/07/26 01:16:55;;;;;;;48.42;12.38;;;17.20;99.90;;;;;;5061731;28;20032;-67
2022/07/26 01:19:21;;;;;;;39.70;12.02;;;17.10;99.90;;;;;;5059823;28;20052;-66
2022/07/26 01:21:48;;;;;;;36.40;11.88;;;17.10;99.90;;;;;;5059892;28;20036;-66
2022/07/26 01:24:14;;;;;;;44.40;12.75;;;17.00;99.90;;;;;;5058063;28;20070;-68
2022/07/26 01:26:40;;;;;;;51.10;14.00;;;17.00;99.90;;;;;;5062884;28;20403;-67
2022/07/26 01:29:06;;;;;;;45.22;13.07;;;16.90;99.90;;;;;;5061577;28;20037;-68
2022/07/26 01:31:32;;;;;;;37.67;12.80;;;17.00;99.90;;;;;;5062103;28;20047;-67
2022/07/26 01:33:57;;;;;;;40.10;12.35;;;16.90;99.90;;;;;;5061396;28;20037;-69
2022/07/26 01:36:23;;;;;;;38.95;12.40;;;16.80;99.90;;;;;;5068798;28;20475;-66
2022/07/26 01:38:49;;;;;;;41.13;12.18;;;16.90;99.90;;;;;;5062114;28;20048;-67
2022/07/26 01:41:14;;;;;;;40.65;12.48;;;16.90;99.90;;;;;;5036712;28;20063;-67
2022/07/26 01:43:40;;;;;;;44.60;12.93;;;16.80;99.90;;;;;;5070766;28;20078;-67
2022/07/26 01:46:07;;;;;;;45.10;12.93;;;16.70;99.90;;;;;;5064697;28;20044;-68
2022/07/26 01:48:33;;;;;;;44.28;12.25;;;16.80;99.90;;;;;;5058516;28;20067;-67
2022/07/26 01:50:59;;;;;;;43.60;12.95;;;16.80;99.90;;;;;;5061652;28;20055;-67
2022/07/26 01:53:25;;;;;;;41.15;14.05;;;16.60;99.90;;;;;;5067302;28;20109;-66
2022/07/26 01:55:51;;;;;;;50.40;13.65;;;16.80;99.90;;;;;;5063037;28;20028;-67
2022/07/26 01:58:17;;;;;;;43.72;12.65;;;16.60;99.90;;;;;;5061189;28;20091;-66
2022/07/26 02:00:42;;;;;;;40.70;12.90;;;16.70;99.90;;;;;;5057988;28;20033;-67
2022/07/26 02:03:08;;;;;;;51.80;13.48;;;16.50;99.90;;;;;;5063347;28;20036;-67
2022/07/26 02:05:34;;;;;;;42.65;13.40;;;16.60;99.90;;;;;;5063647;28;20044;-66
2022/07/26 02:07:59;;;;;;;47.25;13.43;;;16.50;99.90;;;;;;5066437;28;20040;-66
2022/07/26 02:10:59;;;;;;;43.30;13.40;;;16.60;99.90;;;;;;5061247;28;20043;-66
2022/07/26 02:13:12;;;;;;;40.00;13.73;;;16.50;99.90;;;;;;5067178;28;20037;-67
2022/07/26 02:15:38;;;;;;;41.95;13.77;;;16.60;99.90;;;;;;5058968;28;20044;-65
2022/07/26 02:18:03;;;;;;;42.08;13.45;;;16.60;99.90;;;;;;5066664;28;20047;-66
2022/07/26 02:20:32;;;;;;;37.25;11.18;;;16.70;99.90;;;;;;5068736;28;20399;-66
2022/07/26 02:22:59;;;;;;;36.13;9.18;;;16.60;99.90;;;;;;5069126;28;20135;-67
2022/07/26 02:25:24;;;;;;;29.45;8.50;;;16.70;99.90;;;;;;5069016;28;20479;-67
2022/07/26 02:27:50;;;;;;;29.42;9.07;;;16.60;99.90;;;;;;5067140;28;20047;-68
2022/07/26 02:30:16;;;;;;;18.13;7.57;;;16.80;99.90;;;;;;5068206;28;20033;-66
2022/07/26 02:32:42;;;;;;;27.40;7.90;;;16.90;99.90;;;;;;5062738;28;20036;-67
2022/07/26 02:35:08;;;;;;;32.80;7.95;;;16.90;99.90;;;;;;5068514;28;20040;-66
2022/07/26 02:37:34;;;;;;;24.23;7.03;;;17.00;99.90;;;;;;5068060;28;20098;-66
2022/07/26 02:40:01;;;;;;;23.02;8.07;;;17.10;99.90;;;;;;5067537;28;20470;-66
2022/07/26 02:42:27;;;;;;;22.80;7.53;;;17.00;99.90;;;;;;5070930;28;20045;-67
2022/07/26 02:44:52;;;;;;;21.92;7.60;;;17.10;99.90;;;;;;5059626;28;20049;-67
2022/07/26 02:47:18;;;;;;;17.27;7.20;;;17.20;99.90;;;;;;5063514;28;20041;-68
2022/07/26 02:49:44;;;;;;;17.90;7.30;;;17.10;99.90;;;;;;5064693;28;20039;-68
2022/07/26 02:52:10;;;;;;;16.52;7.05;;;17.20;99.90;;;;;;5068829;28;20032;-69
2022/07/26 02:54:35;;;;;;;19.30;6.72;;;17.10;99.90;;;;;;5071784;28;20040;-66
2022/07/26 02:57:02;;;;;;;20.30;7.82;;;17.30;99.90;;;;;;5055713;28;20188;-67
2022/07/26 02:59:27;;;;;;;15.95;7.43;;;17.30;99.90;;;;;;5061729;28;20032;-69
2022/07/26 03:01:53;;;;;;;16.02;7.60;;;17.30;99.90;;;;;;5067781;28;20033;-67
2022/07/26 03:04:19;;;;;;;17.17;7.20;;;17.30;99.90;;;;;;5066663;28;20044;-68
2022/07/26 03:06:44;;;;;;;23.45;8.23;;;17.20;99.90;;;;;;5069755;28;20042;-68
2022/07/26 03:09:10;;;;;;;18.33;7.53;;;17.20;99.90;;;;;;5063358;28;20094;-68
2022/07/26 03:11:36;;;;;;;19.70;7.57;;;17.00;99.90;;;;;;5062134;28;20086;-67
2022/07/26 03:14:02;;;;;;;15.52;7.25;;;17.10;99.90;;;;;;5068750;28;20033;-68
2022/07/26 03:16:27;;;;;;;19.60;8.07;;;17.10;99.90;;;;;;5077263;28;20047;-67
2022/07/26 03:18:53;;;;;;;23.27;8.60;;;16.90;99.90;;;;;;5053815;28;20040;-68
2022/07/26 03:21:19;;;;;;;19.50;8.82;;;17.00;99.90;;;;;;5065510;28;20075;-69
2022/07/26 03:23:44;;;;;;;19.95;8.90;;;17.00;99.90;;;;;;5064483;28;20047;-68
2022/07/26 03:26:10;;;;;;;23.23;9.05;;;17.00;99.90;;;;;;5059482;28;20143;-68
2022/07/26 03:28:36;;;;;;;25.00;9.30;;;16.90;99.90;;;;;;5059192;28;20041;-69
2022/07/26 03:31:02;;;;;;;21.85;9.50;;;16.90;99.90;;;;;;5066578;28;20042;-67
2022/07/26 03:33:28;;;;;;;40.28;12.07;;;16.90;99.90;;;;;;5065265;28;20040;-71
2022/07/26 03:35:54;;;;;;;22.00;7.82;;;17.00;99.90;;;;;;5079324;28;20042;-68
2022/07/26 03:38:19;;;;;;;14.07;6.50;;;16.90;99.90;;;;;;5071427;28;20036;-70
2022/07/26 03:40:46;;;;;;;8.10;4.00;;;16.70;99.90;;;;;;5060611;28;20098;-69
2022/07/26 03:43:11;;;;;;;10.13;3.45;;;16.80;99.90;;;;;;5061945;28;20108;-66
2022/07/26 03:45:37;;;;;;;13.82;5.20;;;16.70;99.90;;;;;;5062823;28;20120;-68
2022/07/26 03:48:03;;;;;;;17.73;5.38;;;16.60;99.90;;;;;;5062704;28;20463;-74
2022/07/26 03:50:28;;;;;;;13.50;5.35;;;16.60;99.90;;;;;;5064077;28;20143;-72
2022/07/26 03:52:54;;;;;;;13.70;5.10;;;16.60;99.90;;;;;;5054284;28;20587;-73
2022/07/26 03:58:04;;;;;;;15.80;6.20;;;16.50;99.90;;;;;;5059115;28;20051;-76
2022/07/26 04:00:29;;;;;;;16.85;6.50;;;16.30;99.90;;;;;;5061208;28;20025;-71
2022/07/26 04:02:55;;;;;;;19.95;6.20;;;16.20;99.90;;;;;;5045349;28;20090;-75
2022/07/26 04:05:21;;;;;;;23.67;6.90;;;16.40;99.90;;;;;;5070086;28;20056;-71
2022/07/26 04:07:46;;;;;;;22.45;6.40;;;16.20;99.90;;;;;;5066606;28;20044;-74
2022/07/26 04:10:12;;;;;;;20.10;6.28;;;16.20;99.90;;;;;;5069141;28;20062;-75
2022/07/26 04:12:38;;;;;;;21.30;7.15;;;16.40;99.90;;;;;;5068058;28;20048;-73
2022/07/26 04:15:05;;;;;;;21.95;7.18;;;16.20;99.90;;;;;;5064666;28;20392;-73
2022/07/26 04:17:40;;;;;;;18.25;6.93;;;16.40;99.90;;;;;;5063638;28;20446;-73
2022/07/26 04:20:07;;;;;;;22.67;6.40;;;16.30;99.90;;;;;;5079312;28;20072;-75
2022/07/26 04:22:34;;;;;;;21.25;6.97;;;16.40;99.90;;;;;;5067237;28;20028;-74
2022/07/26 04:25:00;;;;;;;23.67;6.68;;;16.40;99.90;;;;;;5065939;28;20041;-70
2022/07/26 04:27:26;;;;;;;21.85;7.20;;;16.30;99.90;;;;;;5048573;28;20078;-75
2022/07/26 04:29:51;;;;;;;20.98;6.93;;;16.30;99.90;;;;;;5066246;28;20060;-71
2022/07/26 04:32:17;;;;;;;19.88;6.80;;;16.30;99.90;;;;;;5062766;28;20557;-75
2022/07/26 04:34:42;;;;;;;19.42;6.18;;;16.30;99.90;;;;;;5076636;28;20037;-74
2022/07/26 04:37:08;;;;;;;22.63;6.40;;;16.40;99.90;;;;;;5064444;28;20480;-75
2022/07/26 04:39:33;;;;;;;19.95;6.05;;;16.40;99.90;;;;;;5062864;28;20032;-80
2022/07/26 04:41:59;;;;;;;14.63;5.28;;;16.20;99.90;;;;;;5064024;28;20040;-71
2022/07/26 04:44:25;;;;;;;15.13;5.40;;;16.30;99.90;;;;;;5063822;28;20068;-76
2022/07/26 04:46:50;;;;;;;17.55;5.18;;;16.40;99.90;;;;;;5063918;28;20033;-72
2022/07/26 04:49:16;;;;;;;20.13;5.97;;;16.20;99.90;;;;;;5065332;28;20025;-75
2022/07/26 04:51:41;;;;;;;14.10;4.78;;;16.50;99.90;;;;;;5058165;28;20383;-73
2022/07/26 04:54:07;;;;;;;16.88;5.25;;;16.50;99.90;;;;;;5060588;28;21659;-77
2022/07/26 04:56:32;;;;;;;18.38;4.80;;;16.50;99.90;;;;;;5062674;28;20055;-74
2022/07/26 04:58:58;;;;;;;16.88;4.53;;;16.30;99.90;;;;;;5079398;28;20406;-79
2022/07/26 05:01:24;;;;;;;15.82;5.15;;;16.30;99.90;;;;;;5061735;28;20036;-76
2022/07/26 05:03:49;;;;;;;20.65;6.10;;;16.20;99.90;;;;;;5059590;28;20040;-75
2022/07/26 05:06:15;;;;;;;18.15;4.90;;;16.10;99.90;;;;;;5061831;28;20383;-75
2022/07/26 05:08:42;;;;;;;19.42;5.20;;;16.10;99.90;;;;;;5078967;28;20079;-75
2022/07/26 05:11:07;;;;;;;18.77;5.75;;;16.10;99.90;;;;;;5059354;28;20095;-74
2022/07/26 05:13:33;;;;;;;17.25;5.82;;;16.40;99.90;;;;;;5061073;28;20040;-72
2022/07/26 05:15:59;;;;;;;24.48;6.60;;;16.40;99.90;;;;;;5057997;28;20033;-72
2022/07/26 05:18:26;;;;;;;24.38;6.28;;;16.50;99.90;;;;;;5061466;28;20284;-72
2022/07/26 05:20:52;;;;;;;22.27;6.20;;;16.60;99.90;;;;;;5062746;28;20056;-72
2022/07/26 05:23:19;;;;;;;21.67;5.82;;;16.50;99.90;;;;;;5062707;28;20129;-74
2022/07/26 05:25:45;;;;;;;20.75;5.38;;;16.60;99.90;;;;;;5062231;28;20075;-73
2022/07/26 05:28:10;;;;;;;17.15;5.93;;;16.40;99.90;;;;;;5039019;28;20073;-75
2022/07/26 05:30:36;;;;;;;24.48;6.28;;;16.70;99.90;;;;;;5060310;28;20040;-78
2022/07/26 05:33:02;;;;;;;22.60;4.68;;;16.60;99.90;;;;;;5066749;28;20036;-75
2022/07/26 05:35:28;;;;;;;11.13;3.80;;;16.50;99.90;;;;;;5063628;28;20154;-72
2022/07/26 05:37:53;;;;;;;17.02;3.90;;;16.50;99.90;;;;;;5063725;28;20142;-74
2022/07/26 05:40:19;;;;;;;17.92;3.63;;;16.70;99.90;;;;;;5061216;28;20040;-74
2022/07/26 05:42:44;;;;;;;11.57;3.55;;;16.50;99.90;;;;;;5055179;28;20472;-73
2022/07/26 05:45:10;;;;;;;14.02;2.47;;;16.50;99.90;;;;;;5059062;28;20048;-72
2022/07/26 05:47:36;;;;;;;13.18;2.90;;;16.50;99.90;;;;;;5060031;28;20083;-75
2022/07/26 05:50:03;;;;;;;13.15;2.10;;;16.40;99.90;;;;;;5052825;28;20388;-70
2022/07/26 05:52:29;;;;;;;8.60;1.65;;;16.40;99.90;;;;;;5058518;28;20037;-72
2022/07/26 05:54:54;;;;;;;11.27;2.33;;;16.30;99.90;;;;;;5062500;28;20088;-75
2022/07/26 05:57:20;;;;;;;9.77;1.77;;;16.20;99.90;;;;;;5059507;28;20044;-75
2022/07/26 05:59:46;;;;;;;14.35;2.20;;;16.10;99.90;;;;;;5058514;28;20107;-71
2022/07/26 06:02:11;;;;;;;11.77;2.03;;;16.10;99.90;;;;;;5068269;28;20362;-72
2022/07/26 06:04:37;;;;;;;5.05;1.50;;;16.10;99.90;;;;;;5062841;28;20476;-71
2022/07/26 06:07:02;;;;;;;5.72;1.20;;;16.00;99.90;;;;;;5059160;28;20055;-70
2022/07/26 06:09:28;;;;;;;12.23;2.08;;;16.10;99.90;;;;;;5055320;28;20037;-74
2022/07/26 06:11:54;;;;;;;11.10;1.20;;;16.10;99.90;;;;;;5075677;28;20044;-73
2022/07/26 06:14:19;;;;;;;12.45;1.52;;;16.20;99.90;;;;;;5065713;28;20041;-74
2022/07/26 06:16:46;;;;;;;9.63;1.40;;;16.10;99.90;;;;;;5060100;28;20337;-72
2022/07/26 06:19:12;;;;;;;3.42;1.27;;;16.10;99.90;;;;;;5063187;28;20036;-74
2022/07/26 06:21:37;;;;;;;6.80;1.52;;;16.20;99.90;;;;;;5060089;28;20122;-75
2022/07/26 06:24:03;;;;;;;9.57;2.15;;;16.10;99.90;;;;;;5059081;28;20041;-73
2022/07/26 06:26:29;;;;;;;12.63;1.70;;;16.00;99.90;;;;;;5055308;28;20182;-73
2022/07/26 06:28:55;;;;;;;12.40;1.63;;;16.10;99.90;;;;;;5055929;28;20560;-74
2022/07/26 06:31:20;;;;;;;6.00;1.20;;;16.20;99.90;;;;;;5065554;28;20194;-74
2022/07/26 06:33:46;;;;;;;7.57;1.55;;;16.30;99.90;;;;;;5067985;28;20538;-74
2022/07/26 06:36:12;;;;;;;10.55;1.30;;;16.30;99.90;;;;;;5074481;28;20041;-74
2022/07/26 06:38:37;;;;;;;10.65;1.33;;;16.30;99.90;;;;;;5064307;28;20475;-72
2022/07/26 06:41:03;;;;;;;7.28;0.90;;;16.30;99.90;;;;;;5058888;28;20375;-76
2022/07/26 06:43:28;;;;;;;5.22;0.80;;;16.30;99.90;;;;;;5084575;28;20036;-74
2022/07/26 06:45:54;;;;;;;9.25;1.15;;;16.20;99.90;;;;;;5070529;28;20418;-74
2022/07/26 06:48:20;;;;;;;9.07;1.10;;;16.40;99.90;;;;;;5068658;28;20031;-74
2022/07/26 06:50:45;;;;;;;6.85;1.20;;;16.40;99.90;;;;;;5059275;28;20036;-73
2022/07/26 06:53:11;;;;;;;10.20;1.10;;;16.40;99.90;;;;;;5058936;28;20037;-74
2022/07/26 06:55:37;;;;;;;10.60;1.35;;;16.40;99.90;;;;;;5053485;28;20036;-74
2022/07/26 06:58:02;;;;;;;7.72;1.00;;;16.60;99.90;;;;;;5050632;28;20123;-73
2022/07/26 07:00:28;;;;;;;4.07;0.88;;;16.50;99.90;;;;;;5053660;28;20036;-75
2022/07/26 07:02:53;;;;;;;8.50;1.00;;;16.60;99.90;;;;;;5054304;28;20078;-77
2022/07/26 07:05:19;;;;;;;6.35;1.10;;;16.70;99.90;;;;;;5059101;28;20801;-69
2022/07/26 07:07:45;;;;;;;5.93;0.80;;;16.70;99.90;;;;;;5056634;28;20044;-72
2022/07/26 07:10:11;;;;;;;5.47;0.77;;;16.60;99.90;;;;;;5058724;28;20040;-75
2022/07/26 07:12:37;;;;;;;8.15;1.10;;;16.60;99.90;;;;;;5056415;28;20349;-71
2022/07/26 07:15:03;;;;;;;3.35;1.10;;;16.60;99.90;;;;;;5069691;28;20125;-73
2022/07/26 07:17:28;;;;;;;9.52;1.13;;;16.50;99.90;;;;;;5059565;28;20480;-72
2022/07/26 07:19:54;;;;;;;8.18;0.90;;;16.40;99.90;;;;;;5055804;28;20040;-75
2022/07/26 07:22:19;;;;;;;5.93;0.70;;;16.30;99.90;;;;;;5055417;28;20060;-74
2022/07/26 07:24:45;;;;;;;6.75;1.05;;;16.40;99.90;;;;;;5056265;28;20041;-74
2022/07/26 07:27:11;;;;;;;6.40;0.90;;;16.50;99.90;;;;;;5052902;28;20079;-75
2022/07/26 07:29:36;;;;;;;8.15;1.02;;;16.50;99.90;;;;;;5051398;28;20048;-77
2022/07/26 07:32:02;;;;;;;10.85;0.93;;;16.50;99.90;;;;;;5060372;28;20032;-74
2022/07/26 07:34:28;;;;;;;9.68;1.20;;;16.70;99.90;;;;;;5063063;28;20041;-77
2022/07/26 07:36:53;;;;;;;5.05;1.08;;;16.70;99.90;;;;;;5064367;28;20407;-74
2022/07/26 07:39:19;;;;;;;8.65;1.17;;;16.90;99.90;;;;;;5067200;28;20032;-75
2022/07/26 07:41:46;;;;;;;6.50;1.08;;;17.10;99.90;;;;;;5065081;28;20058;-74
2022/07/26 07:44:12;;;;;;;8.23;1.10;;;17.30;99.90;;;;;;5064712;28;20044;-75
2022/07/26 07:46:37;;;;;;;8.65;1.02;;;17.50;99.90;;;;;;5057051;28;20068;-72
2022/07/26 07:49:03;;;;;;;2.53;0.57;;;17.60;99.90;;;;;;5059159;28;20126;-72
2022/07/26 07:51:29;;;;;;;5.90;0.88;;;17.80;99.90;;;;;;5066095;28;20036;-70
2022/07/26 07:53:55;;;;;;;6.07;0.98;;;17.70;99.90;;;;;;5079706;28;20033;-72
2022/07/26 07:56:20;;;;;;;3.28;0.60;;;17.40;99.90;;;;;;5077825;28;20044;-73
2022/07/26 07:58:46;;;;;;;9.70;1.00;;;17.30;99.90;;;;;;5067906;28;20402;-75
2022/07/26 08:01:12;;;;;;;6.32;0.90;;;17.20;99.90;;;;;;5068100;28;20143;-78
2022/07/26 08:03:37;;;;;;;7.93;1.52;;;17.10;99.90;;;;;;5058179;28;20048;-71
2022/07/26 08:06:05;;;;;;;6.13;1.20;;;17.10;99.90;;;;;;5070445;28;20044;-73
2022/07/26 08:08:31;;;;;;;5.93;0.90;;;17.10;99.90;;;;;;5067683;28;20119;-78
2022/07/26 08:10:56;;;;;;;6.45;0.60;;;17.10;99.90;;;;;;5081844;28;20466;-72
2022/07/26 08:13:22;;;;;;;5.25;1.27;;;17.20;99.90;;;;;;5068280;28;20391;-73
2022/07/26 08:15:49;;;;;;;5.18;1.00;;;17.20;99.90;;;;;;5073080;28;20080;-75
2022/07/26 08:18:15;;;;;;;5.95;0.90;;;17.20;99.90;;;;;;5066730;28;20036;-72
2022/07/26 08:20:41;;;;;;;9.23;0.93;;;17.20;99.90;;;;;;5071834;28;20097;-72
2022/07/26 08:23:06;;;;;;;3.58;0.60;;;17.40;99.90;;;;;;5071099;28;20036;-74
2022/07/26 08:25:32;;;;;;;6.55;0.90;;;17.60;99.90;;;;;;5060584;28;20429;-71
2022/07/26 08:27:57;;;;;;;6.57;1.30;;;17.70;99.90;;;;;;5056182;28;20041;-77
2022/07/26 08:30:23;;;;;;;7.90;1.00;;;17.80;99.90;;;;;;5059570;28;20060;-74
2022/07/26 08:32:48;;;;;;;5.95;1.20;;;17.80;99.90;;;;;;5053997;28;20722;-77
2022/07/26 08:35:14;;;;;;;6.53;1.10;;;18.00;99.90;;;;;;5067399;28;20090;-74
2022/07/26 08:37:40;;;;;;;12.98;1.42;;;18.10;99.90;;;;;;5070123;28;20036;-74
2022/07/26 08:40:06;;;;;;;6.97;1.30;;;18.30;99.90;;;;;;5063166;28;20062;-73
2022/07/26 08:42:32;;;;;;;8.52;1.38;;;18.40;99.90;;;;;;5071159;28;20050;-76
2022/07/26 08:44:58;;;;;;;6.32;0.90;;;18.40;99.90;;;;;;5070807;28;20045;-73
2022/07/26 08:47:24;;;;;;;12.98;1.27;;;18.40;99.90;;;;;;5066506;28;20124;-74
2022/07/26 08:49:50;;;;;;;4.65;0.70;;;18.40;99.90;;;;;;5052241;28;20128;-75
2022/07/26 08:52:16;;;;;;;8.73;1.17;;;18.30;99.90;;;;;;5051442;28;20040;-72
2022/07/26 08:54:50;;;;;;;3.92;0.60;;;18.10;99.90;;;;;;5050782;28;20044;-76
2022/07/26 08:57:16;;;;;;;6.85;1.10;;;17.90;99.90;;;;;;5055980;28;20044;-73
2022/07/26 08:59:42;;;;;;;8.77;1.30;;;17.60;99.90;;;;;;5061093;28;20053;-77
2022/07/26 09:02:11;;;;;;;7.45;1.05;;;17.30;99.90;;;;;;5060895;28;20407;-77
2022/07/26 09:04:45;;;;;;;10.13;1.48;;;17.10;99.90;;;;;;5067488;28;20036;-75
2022/07/26 09:07:14;;;;;;;10.35;1.23;;;17.10;99.90;;;;;;5065745;28;20476;-74
2022/07/26 09:09:58;;;;;;;10.20;1.58;;;17.10;99.90;;;;;;5052367;28;20037;-72
2022/07/26 09:12:26;;;;;;;3.53;0.85;;;17.40;99.90;;;;;;5068053;28;20033;-73
2022/07/26 09:14:52;;;;;;;5.78;1.10;;;17.60;99.90;;;;;;5070022;28;20044;-73
2022/07/26 09:17:20;;;;;;;10.82;1.25;;;17.80;99.90;;;;;;5070526;28;20056;-77
2022/07/26 09:20:03;;;;;;;6.70;1.30;;;18.00;99.90;;;;;;5062955;28;20440;-76
2022/07/26 09:22:29;;;;;;;6.03;1.00;;;18.30;99.90;;;;;;5051122;28;20064;-74
2022/07/26 09:24:54;;;;;;;9.77;1.65;;;18.40;99.90;;;;;;5051846;28;20045;-76
2022/07/26 09:27:20;;;;;;;8.80;1.20;;;18.60;99.90;;;;;;5069627;28;20059;-76
2022/07/26 09:29:47;;;;;;;10.23;1.38;;;18.70;99.90;;;;;;5066443;28;20066;-69
2022/07/26 09:32:20;;;;;;;8.27;1.20;;;18.80;99.90;;;;;;5071152;28;20368;-72
2022/07/26 09:34:57;;;;;;;9.38;1.42;;;18.80;99.90;;;;;;5070398;28;20131;-77
2022/07/26 09:37:37;;;;;;;9.90;1.50;;;18.80;99.90;;;;;;5062952;28;20067;-74
2022/07/26 09:40:09;;;;;;;5.03;1.00;;;18.90;99.90;;;;;;5070600;28;20056;-71
2022/07/26 09:42:35;;;;;;;8.93;1.30;;;18.80;99.90;;;;;;5062477;28;20797;-72
2022/07/26 09:45:01;;;;;;;14.07;2.00;;;18.70;99.90;;;;;;5070849;28;20044;-74
2022/07/26 09:47:38;;;;;;;10.38;1.70;;;18.60;99.90;;;;;;5068653;28;20044;-72
2022/07/26 09:50:24;;;;;;;10.20;1.58;;;18.50;99.90;;;;;;5051847;28;20028;-73
2022/07/26 09:53:08;;;;;;;11.20;2.75;;;18.30;99.90;;;;;;5056627;28;20041;-76
2022/07/26 09:55:55;;;;;;;12.18;1.65;;;18.20;99.90;;;;;;5052755;28;20041;-72
2022/07/26 09:58:21;;;;;;;10.10;1.63;;;18.10;99.90;;;;;;5056504;28;20179;-76
2022/07/26 10:00:47;;;;;;;11.00;1.52;;;18.00;99.90;;;;;;5067456;28;20507;-75
2022/07/26 10:03:13;;;;;;;13.88;2.00;;;18.00;99.90;;;;;;5057472;28;20052;-72
2022/07/26 10:05:40;;;;;;;12.80;1.85;;;18.00;99.90;;;;;;5075662;28;20059;-75
2022/07/26 10:08:06;;;;;;;10.18;1.60;;;18.10;99.90;;;;;;5064261;28;20048;-73
2022/07/26 10:10:48;;;;;;;8.57;1.80;;;18.20;99.90;;;;;;5056405;28;20484;-72
2022/07/26 10:13:14;;;;;;;10.20;1.93;;;18.20;99.90;;;;;;5055285;28;20036;-75
2022/07/26 10:15:40;;;;;;;9.75;2.03;;;18.20;99.90;;;;;;5057823;28;20310;-71
2022/07/26 10:18:07;;;;;;;8.98;1.40;;;18.10;99.90;;;;;;5050759;28;20045;-72
2022/07/26 10:20:42;;;;;;;12.07;2.10;;;18.10;99.90;;;;;;5065224;28;20044;-74
2022/07/26 10:23:34;;;;;;;14.65;1.80;;;18.10;99.90;;;;;;5053090;28;20420;-71
2022/07/26 10:26:00;;;;;;;8.13;1.90;;;18.20;99.90;;;;;;5055155;28;20029;-75
2022/07/26 10:28:30;;;;;;;20.98;2.75;;;18.20;99.90;;;;;;5056894;28;20056;-72
2022/07/26 10:31:28;;;;;;;6.35;1.75;;;18.00;99.90;;;;;;5060842;28;20072;-72
2022/07/26 10:33:55;;;;;;;12.00;2.10;;;17.80;99.90;;;;;;5060451;28;20040;-77
2022/07/26 10:36:29;;;;;;;8.18;2.00;;;17.50;99.90;;;;;;5066849;28;20072;-77
2022/07/26 10:39:02;;;;;;;12.50;2.10;;;17.30;99.90;;;;;;5065148;28;20421;-73
2022/07/26 10:41:37;;;;;;;12.98;2.42;;;17.20;99.90;;;;;;5061796;28;20067;-73
2022/07/26 10:44:15;;;;;;;9.30;2.05;;;17.20;99.90;;;;;;5058824;28;20074;-73
2022/07/26 10:46:56;;;;;;;11.38;2.42;;;17.20;99.90;;;;;;5059188;28;20052;-76
2022/07/26 10:49:44;;;;;;;12.43;2.30;;;17.20;99.90;;;;;;5072395;28;20400;-73
2022/07/26 10:52:25;;;;;;;12.93;2.30;;;17.30;99.90;;;;;;5059313;28;20205;-73
2022/07/26 10:54:59;;;;;;;11.48;2.60;;;17.50;99.90;;;;;;5050894;28;20049;-71
2022/07/26 10:57:46;;;;;;;8.55;2.20;;;17.70;99.90;;;;;;5052986;28;20395;-70
2022/07/26 11:00:21;;;;;;;17.58;2.08;;;17.90;99.90;;;;;;5057309;28;20127;-74
2022/07/26 11:02:51;;;;;;;13.75;2.35;;;17.90;99.90;;;;;;5055305;28;20045;-75
2022/07/26 11:05:18;;;;;;;17.40;2.58;;;17.90;99.90;;;;;;5041168;28;20387;-74
2022/07/26 11:08:08;;;;;;;16.20;2.70;;;18.00;99.90;;;;;;5054896;28;20037;-73
2022/07/26 11:10:36;;;;;;;18.92;2.70;;;18.00;99.90;;;;;;5061038;28;20501;-70
2022/07/26 11:13:05;;;;;;;13.32;2.60;;;18.00;99.90;;;;;;5056783;28;20047;-74
2022/07/26 11:15:32;;;;;;;16.40;2.75;;;17.90;99.90;;;;;;5058716;28;20850;-74
2022/07/26 11:18:11;;;;;;;12.40;1.90;;;17.80;99.90;;;;;;5064002;28;20045;-72
2022/07/26 11:20:37;;;;;;;10.55;1.98;;;17.80;99.90;;;;;;5055504;28;20056;-71
2022/07/26 11:23:15;;;;;;;16.15;2.50;;;17.80;99.90;;;;;;5063417;28;20051;-70
2022/07/26 11:25:41;;;;;;;14.55;2.67;;;17.80;99.90;;;;;;5069750;28;20040;-70
2022/07/26 11:28:06;;;;;;;13.27;2.08;;;17.90;99.90;;;;;;5064153;28;20055;-69
2022/07/26 11:30:32;;;;;;;12.75;3.35;;;18.00;99.90;;;;;;5062529;28;20459;-72
2022/07/26 11:32:58;;;;;;;15.82;2.60;;;18.00;99.90;;;;;;5063230;28;20032;-69
2022/07/26 11:35:25;;;;;;;15.63;2.38;;;17.90;99.90;;;;;;5063077;28;21405;-74
2022/07/26 11:37:56;;;;;;;12.98;1.95;;;17.90;99.90;;;;;;5062003;28;20047;-72
2022/07/26 11:40:41;;;;;;;12.48;1.98;;;17.80;99.90;;;;;;5060637;28;20040;-71
2022/07/26 11:43:07;;;;;;;10.13;1.75;;;17.80;99.90;;;;;;5059728;28;20063;-70
2022/07/26 11:45:32;;;;;;;13.98;1.80;;;17.90;99.90;;;;;;5062005;28;20550;-73
2022/07/26 11:47:59;;;;;;;12.48;2.83;;;17.90;99.90;;;;;;5057119;28;20040;-73
2022/07/26 11:50:25;;;;;;;9.68;2.35;;;18.00;99.90;;;;;;5065405;28;20045;-69
2022/07/26 11:52:51;;;;;;;14.88;2.40;;;18.10;99.90;;;;;;5053864;28;20032;-71
2022/07/26 11:55:30;;;;;;;12.57;1.50;;;18.30;99.90;;;;;;5064030;28;20044;-74
2022/07/26 11:58:03;;;;;;;11.80;2.08;;;18.40;99.90;;;;;;5065114;28;20131;-77
2022/07/26 12:00:29;;;;;;;16.73;2.03;;;18.50;99.90;;;;;;5073792;28;20062;-72
2022/07/26 12:02:56;;;;;;;10.32;2.15;;;18.60;99.90;;;;;;5059303;28;20041;-72
2022/07/26 12:05:22;;;;;;;16.90;2.13;;;18.70;99.90;;;;;;5063950;28;20504;-74
2022/07/26 12:08:02;;;;;;;8.75;1.48;;;18.70;99.90;;;;;;5069730;28;20066;-70
2022/07/26 12:10:28;;;;;;;17.35;2.20;;;18.80;99.90;;;;;;5067455;28;20036;-72
2022/07/26 12:13:14;;;;;;;11.20;2.05;;;18.90;99.90;;;;;;5070494;28;20036;-72
2022/07/26 12:15:50;;;;;;;10.27;2.10;;;18.90;99.90;;;;;;5057122;28;20399;-70
2022/07/26 12:18:27;;;;;;;7.50;1.92;;;19.00;99.90;;;;;;5043641;28;20087;-75
2022/07/26 12:20:59;;;;;;;12.32;1.92;;;19.10;99.90;;;;;;5072186;28;20050;-74
2022/07/26 12:23:24;;;;;;;11.07;2.17;;;19.30;99.90;;;;;;5072285;28;20468;-72
2022/07/26 12:25:50;;;;;;;13.10;2.00;;;19.30;99.90;;;;;;5054491;28;20079;-74
2022/07/26 12:28:36;;;;;;;13.80;2.00;;;19.10;99.90;;;;;;5072758;28;20044;-74
2022/07/26 12:31:01;;;;;;;10.20;2.00;;;19.00;99.90;;;;;;5089166;28;20048;-71
2022/07/26 12:33:27;;;;;;;9.65;2.08;;;19.00;99.90;;;;;;5062161;28;20041;-73
2022/07/26 12:35:58;;;;;;;8.75;1.80;;;19.10;99.90;;;;;;5069221;28;20041;-72
2022/07/26 12:38:41;;;;;;;9.53;1.37;;;19.10;99.90;;;;;;5071995;28;20048;-72
2022/07/26 12:41:07;;;;;;;7.45;1.60;;;19.30;99.90;;;;;;5072066;28;20076;-69
2022/07/26 12:43:42;;;;;;;9.07;1.63;;;19.50;99.90;;;;;;5072189;28;20075;-70